Time;durP1;ratioP1;P1;durP2;ratioP2;P2;SDS_P1;SDS_P2;PMS_P1;PMS_P2;Temp;Humidity;BMP_temperature;BMP_pressure;BME280_temperature;BME280_humidity;BME280_pressure;Samples;Min_cycle;Max_cycle;Signal;HPM_P1;HPM_P2
2022/03/16 00:02:23;;;;;;;14.10;10.03;;;6.60;99.90;;;;;;5057940;28;20182;-69
2022/03/16 00:04:53;;;;;;;12.17;10.10;;;6.70;99.90;;;;;;5058183;28;20971;-69
2022/03/16 00:07:21;;;;;;;14.20;10.50;;;6.70;99.90;;;;;;5057452;28;20163;-69
2022/03/16 00:09:47;;;;;;;13.43;9.40;;;6.60;99.90;;;;;;5057953;28;20806;-69
2022/03/16 00:12:13;;;;;;;13.00;10.63;;;6.60;99.90;;;;;;5039884;28;20456;-69
2022/03/16 00:14:40;;;;;;;12.73;10.80;;;6.60;99.90;;;;;;5058185;28;20166;-70
2022/03/16 00:17:06;;;;;;;11.50;9.53;;;6.60;99.90;;;;;;5058149;28;20412;-70
2022/03/16 00:19:32;;;;;;;12.20;10.80;;;6.60;99.90;;;;;;5057667;28;20455;-69
2022/03/16 00:21:59;;;;;;;12.77;9.97;;;6.60;99.90;;;;;;5057740;28;20458;-69
2022/03/16 00:24:25;;;;;;;13.73;10.47;;;6.60;99.90;;;;;;5057881;28;20413;-70
2022/03/16 00:26:50;;;;;;;12.77;10.60;;;6.50;99.90;;;;;;5053986;28;20412;-69
2022/03/16 00:29:16;;;;;;;11.70;10.50;;;6.50;99.90;;;;;;5054648;28;20802;-68
2022/03/16 00:31:41;;;;;;;11.57;10.37;;;6.50;99.90;;;;;;5054859;28;20563;-69
2022/03/16 00:34:07;;;;;;;13.27;10.33;;;6.60;99.90;;;;;;5055314;28;20178;-68
2022/03/16 00:36:32;;;;;;;12.03;10.40;;;6.60;99.90;;;;;;5054708;28;20647;-70
2022/03/16 00:38:58;;;;;;;11.90;10.67;;;6.50;99.90;;;;;;5054456;28;20203;-69
2022/03/16 00:41:23;;;;;;;14.87;10.93;;;6.40;99.90;;;;;;5054441;28;20174;-70
2022/03/16 00:43:49;;;;;;;12.77;10.80;;;6.40;99.90;;;;;;5054072;28;20174;-68
2022/03/16 00:46:15;;;;;;;12.03;10.37;;;6.30;99.90;;;;;;5054405;28;20181;-68
2022/03/16 00:48:40;;;;;;;14.57;11.60;;;6.20;99.90;;;;;;5054427;28;20190;-69
2022/03/16 00:51:07;;;;;;;13.30;11.70;;;6.10;99.90;;;;;;5054421;28;20198;-69
2022/03/16 00:53:34;;;;;;;15.77;11.43;;;6.00;99.90;;;;;;5053749;28;20170;-69
2022/03/16 00:56:03;;;;;;;15.07;11.27;;;6.00;99.90;;;;;;5054226;28;20409;-69
2022/03/16 00:58:29;;;;;;;14.47;11.93;;;6.00;99.90;;;;;;5054336;28;20763;-69
2022/03/16 01:00:55;;;;;;;14.63;12.00;;;6.10;99.90;;;;;;5054102;28;20413;-68
2022/03/16 01:03:20;;;;;;;15.90;11.93;;;6.10;99.90;;;;;;5053867;28;20458;-68
2022/03/16 01:05:46;;;;;;;17.00;11.57;;;6.10;99.90;;;;;;5054252;28;20405;-68
2022/03/16 01:08:12;;;;;;;14.57;11.40;;;6.10;99.90;;;;;;5053617;28;20712;-69
2022/03/16 01:10:38;;;;;;;15.90;12.07;;;6.10;99.90;;;;;;5054092;28;20499;-67
2022/03/16 01:13:04;;;;;;;15.57;12.43;;;6.20;99.90;;;;;;5053844;28;20498;-68
2022/03/16 01:15:30;;;;;;;15.97;11.63;;;6.20;99.90;;;;;;5054009;28;20437;-69
2022/03/16 01:17:55;;;;;;;14.30;11.80;;;6.10;99.90;;;;;;5053569;28;20198;-68
2022/03/16 01:20:21;;;;;;;15.33;12.10;;;6.10;99.90;;;;;;5054255;28;20202;-70
2022/03/16 01:22:47;;;;;;;15.03;11.50;;;5.90;99.90;;;;;;5053696;28;20232;-69
2022/03/16 01:25:12;;;;;;;17.47;12.40;;;5.90;99.90;;;;;;5053854;28;20409;-68
2022/03/16 01:27:38;;;;;;;14.87;12.37;;;5.80;99.90;;;;;;5053699;28;20178;-68
2022/03/16 01:30:04;;;;;;;15.40;12.13;;;5.80;99.90;;;;;;5053906;28;20197;-69
2022/03/16 01:32:30;;;;;;;15.53;12.27;;;5.80;99.90;;;;;;5053709;28;20190;-69
2022/03/16 01:34:56;;;;;;;13.90;11.20;;;5.80;99.90;;;;;;5054191;28;20511;-70
2022/03/16 01:37:22;;;;;;;14.93;12.23;;;5.80;99.90;;;;;;5053236;28;20177;-70
2022/03/16 01:39:47;;;;;;;16.53;12.10;;;5.90;99.90;;;;;;5054763;28;20245;-69
2022/03/16 01:42:13;;;;;;;14.60;11.87;;;5.90;99.90;;;;;;5055317;28;20466;-69
2022/03/16 01:44:44;;;;;;;13.00;11.13;;;5.70;99.90;;;;;;5057524;28;20170;-70
2022/03/16 01:47:11;;;;;;;14.57;11.50;;;5.70;99.90;;;;;;5075768;28;20405;-69
2022/03/16 01:49:36;;;;;;;14.13;11.87;;;5.70;99.90;;;;;;5077500;28;20505;-68
2022/03/16 01:52:03;;;;;;;16.53;12.50;;;5.70;99.90;;;;;;5076603;28;20448;-68
2022/03/16 01:54:29;;;;;;;18.17;13.00;;;5.70;99.90;;;;;;5076634;28;20188;-68
2022/03/16 01:56:54;;;;;;;13.97;11.33;;;5.70;99.90;;;;;;5076099;28;20412;-69
2022/03/16 01:59:20;;;;;;;16.70;12.27;;;5.80;99.90;;;;;;5074992;28;20218;-69
2022/03/16 02:01:45;;;;;;;14.20;12.07;;;5.70;99.90;;;;;;5060259;28;20216;-68
2022/03/16 02:04:11;;;;;;;16.53;12.17;;;5.80;99.90;;;;;;5053501;28;20175;-69
2022/03/16 02:06:36;;;;;;;13.13;10.67;;;5.70;99.90;;;;;;5053285;28;20175;-68
2022/03/16 02:09:02;;;;;;;16.23;11.50;;;5.70;99.90;;;;;;5052526;28;20186;-69
2022/03/16 02:11:27;;;;;;;15.60;12.40;;;5.80;99.90;;;;;;5052798;28;20214;-68
2022/03/16 02:13:53;;;;;;;17.30;12.70;;;5.80;99.90;;;;;;5052604;28;20177;-69
2022/03/16 02:16:19;;;;;;;14.57;12.00;;;5.80;99.90;;;;;;5052863;28;20198;-69
2022/03/16 02:18:44;;;;;;;19.10;12.63;;;5.70;99.90;;;;;;5052746;28;20216;-69
2022/03/16 02:21:12;;;;;;;19.10;13.60;;;5.70;99.90;;;;;;5052643;28;20417;-69
2022/03/16 02:23:38;;;;;;;18.30;12.53;;;5.70;99.90;;;;;;5052406;28;20201;-69
2022/03/16 02:26:03;;;;;;;19.23;13.67;;;5.40;99.90;;;;;;5052661;28;20416;-69
2022/03/16 02:28:29;;;;;;;19.40;13.23;;;5.20;99.90;;;;;;5052587;28;20515;-69
2022/03/16 02:30:55;;;;;;;17.13;13.47;;;5.10;99.90;;;;;;5052305;28;20174;-69
2022/03/16 02:33:21;;;;;;;17.10;13.37;;;5.10;99.90;;;;;;5052194;28;20432;-69
2022/03/16 02:35:47;;;;;;;19.13;15.00;;;5.30;99.90;;;;;;5052744;28;20246;-68
2022/03/16 02:38:13;;;;;;;18.73;13.20;;;5.30;99.90;;;;;;5052343;28;20194;-69
2022/03/16 02:40:39;;;;;;;18.97;12.80;;;5.40;99.90;;;;;;5052619;28;20405;-68
2022/03/16 02:43:04;;;;;;;20.73;14.03;;;5.40;99.90;;;;;;5052283;28;20505;-69
2022/03/16 02:45:30;;;;;;;22.53;12.80;;;5.40;99.90;;;;;;5052336;28;20170;-69
2022/03/16 02:47:56;;;;;;;18.70;13.90;;;5.30;99.90;;;;;;5051640;28;20197;-68
2022/03/16 02:50:21;;;;;;;17.43;13.17;;;5.40;99.90;;;;;;5052106;28;20181;-69
2022/03/16 02:52:47;;;;;;;15.13;11.83;;;5.40;99.90;;;;;;5051801;28;20529;-69
2022/03/16 02:55:13;;;;;;;13.47;11.97;;;5.50;99.90;;;;;;5052297;28;20515;-69
2022/03/16 02:57:39;;;;;;;15.17;11.23;;;5.50;99.90;;;;;;5051966;28;20416;-69
2022/03/16 03:00:07;;;;;;;16.37;12.27;;;5.50;99.90;;;;;;5052064;28;20174;-68
2022/03/16 03:02:32;;;;;;;17.33;12.17;;;5.50;99.90;;;;;;5051503;28;20409;-69
2022/03/16 03:04:58;;;;;;;16.97;10.77;;;5.60;99.90;;;;;;5051916;28;20417;-69
2022/03/16 03:07:23;;;;;;;12.30;10.70;;;5.50;99.90;;;;;;5051374;28;20549;-69
2022/03/16 03:09:49;;;;;;;13.57;11.70;;;5.50;99.90;;;;;;5051801;28;20194;-69
2022/03/16 03:12:15;;;;;;;13.27;10.97;;;5.30;99.90;;;;;;5051379;28;20561;-69
2022/03/16 03:14:41;;;;;;;18.13;12.27;;;5.20;99.90;;;;;;5051873;28;20170;-68
2022/03/16 03:17:07;;;;;;;16.23;12.47;;;5.00;99.90;;;;;;5051790;28;20471;-68
2022/03/16 03:19:32;;;;;;;16.07;11.60;;;5.00;99.90;;;;;;5060603;22;20500;-71
2022/03/16 03:21:58;;;;;;;16.33;12.30;;;5.10;99.90;;;;;;5034346;28;20554;-67
2022/03/16 03:24:23;;;;;;;18.30;12.17;;;5.10;99.90;;;;;;5035290;28;20190;-71
2022/03/16 03:26:49;;;;;;;17.10;12.20;;;5.10;99.90;;;;;;5035319;28;20521;-69
2022/03/16 03:29:15;;;;;;;17.80;12.57;;;5.20;99.90;;;;;;5035081;28;20635;-69
2022/03/16 03:31:41;;;;;;;17.33;12.73;;;5.20;99.90;;;;;;5034766;28;20234;-69
2022/03/16 03:34:07;;;;;;;18.47;12.23;;;5.30;99.90;;;;;;5035300;28;20275;-70
2022/03/16 03:36:32;;;;;;;18.80;12.77;;;5.20;99.90;;;;;;5035369;28;20421;-69
2022/03/16 03:38:58;;;;;;;20.33;12.67;;;5.10;99.90;;;;;;5034986;28;20618;-70
2022/03/16 03:41:24;;;;;;;16.47;11.70;;;5.20;99.90;;;;;;5035688;28;20174;-71
2022/03/16 03:43:50;;;;;;;15.67;11.90;;;5.20;99.90;;;;;;5034728;28;20921;-70
2022/03/16 03:46:15;;;;;;;14.80;11.33;;;5.10;99.90;;;;;;5034732;28;20175;-70
2022/03/16 03:48:41;;;;;;;19.40;11.77;;;5.20;99.90;;;;;;5035066;28;20199;-69
2022/03/16 03:51:06;;;;;;;12.13;10.83;;;5.20;99.90;;;;;;5035345;28;20183;-71
2022/03/16 03:53:33;;;;;;;14.50;11.03;;;5.20;99.90;;;;;;5034768;28;20202;-70
2022/03/16 03:55:59;;;;;;;15.50;11.53;;;5.20;99.90;;;;;;5035016;28;20178;-70
2022/03/16 03:58:24;;;;;;;16.17;11.97;;;5.20;99.90;;;;;;5034973;28;20437;-70
2022/03/16 04:00:50;;;;;;;16.63;11.73;;;5.20;99.90;;;;;;5036636;28;20172;-70
2022/03/16 04:03:16;;;;;;;16.53;12.10;;;5.20;99.90;;;;;;5039178;28;20190;-68
2022/03/16 04:05:42;;;;;;;17.40;11.87;;;5.20;99.90;;;;;;5038532;28;20575;-69
2022/03/16 04:08:07;;;;;;;15.30;10.83;;;5.30;99.90;;;;;;5038239;28;20438;-68
2022/03/16 04:10:36;;;;;;;18.40;11.83;;;5.10;99.90;;;;;;5039013;28;20178;-69
2022/03/16 04:13:02;;;;;;;15.00;10.80;;;5.10;99.90;;;;;;5020865;28;20213;-71
2022/03/16 04:15:28;;;;;;;17.80;11.80;;;5.10;99.90;;;;;;5038906;28;20985;-71
2022/03/16 04:17:54;;;;;;;12.97;11.10;;;5.10;99.90;;;;;;5037467;28;20405;-70
2022/03/16 04:20:19;;;;;;;15.83;11.33;;;5.10;99.90;;;;;;5037995;28;20425;-69
2022/03/16 04:22:45;;;;;;;16.00;10.60;;;5.20;99.90;;;;;;5037847;28;20178;-71
2022/03/16 04:25:10;;;;;;;15.80;11.50;;;5.20;99.90;;;;;;5038509;28;20597;-71
2022/03/16 04:27:36;;;;;;;16.33;11.47;;;5.20;99.90;;;;;;5038266;28;20179;-70
2022/03/16 04:30:01;;;;;;;15.20;11.20;;;5.20;99.90;;;;;;5038130;28;20195;-71
2022/03/16 04:32:27;;;;;;;15.60;11.43;;;5.10;99.90;;;;;;5037589;28;20205;-71
2022/03/16 04:34:52;;;;;;;15.67;11.20;;;5.10;99.90;;;;;;5038165;28;20178;-70
2022/03/16 04:37:18;;;;;;;15.20;11.77;;;5.10;99.90;;;;;;5038436;28;20170;-71
2022/03/16 04:39:43;;;;;;;14.47;10.70;;;5.10;99.90;;;;;;5037728;28;20205;-68
2022/03/16 04:42:09;;;;;;;14.87;10.67;;;5.10;99.90;;;;;;5037328;28;20175;-68
2022/03/16 04:44:34;;;;;;;13.60;10.30;;;5.10;99.90;;;;;;5037754;28;20185;-69
2022/03/16 04:47:00;;;;;;;13.77;10.83;;;5.10;99.90;;;;;;5037126;28;20179;-70
2022/03/16 04:49:25;;;;;;;17.70;10.80;;;5.10;99.90;;;;;;5037868;28;20583;-70
2022/03/16 04:51:51;;;;;;;15.60;11.30;;;5.00;99.90;;;;;;5037668;28;20233;-69
2022/03/16 04:54:16;;;;;;;15.33;10.67;;;5.00;99.90;;;;;;5037872;28;20656;-71
2022/03/16 04:56:43;;;;;;;15.27;11.00;;;4.90;99.90;;;;;;5037848;28;20178;-69
2022/03/16 04:59:08;;;;;;;13.93;10.50;;;4.90;99.90;;;;;;5037656;28;20566;-70
2022/03/16 05:01:34;;;;;;;14.70;11.00;;;4.90;99.90;;;;;;5037170;28;20428;-69
2022/03/16 05:03:59;;;;;;;13.07;10.70;;;4.90;99.90;;;;;;5037578;28;20710;-69
2022/03/16 05:06:25;;;;;;;14.87;10.57;;;4.90;99.90;;;;;;5037244;28;20178;-70
2022/03/16 05:08:50;;;;;;;15.47;9.97;;;4.80;99.90;;;;;;5036803;28;20282;-70
2022/03/16 05:11:17;;;;;;;12.47;9.80;;;4.80;99.90;;;;;;5037157;28;20214;-69
2022/03/16 05:13:43;;;;;;;11.63;9.40;;;4.80;99.90;;;;;;5019726;28;20177;-70
2022/03/16 05:16:08;;;;;;;14.00;11.20;;;4.90;99.90;;;;;;5037028;28;20456;-69
2022/03/16 05:18:34;;;;;;;16.13;10.33;;;4.90;99.90;;;;;;5036923;28;20452;-69
2022/03/16 05:21:03;;;;;;;14.07;10.33;;;4.80;99.90;;;;;;5037131;28;20171;-69
2022/03/16 05:23:29;;;;;;;15.40;11.43;;;4.80;99.90;;;;;;5036400;28;20472;-70
2022/03/16 05:25:55;;;;;;;10.73;9.63;;;4.90;99.90;;;;;;5037326;28;20424;-69
2022/03/16 05:28:21;;;;;;;17.77;10.63;;;4.90;99.90;;;;;;5036698;28;20433;-70
2022/03/16 05:30:47;;;;;;;13.17;10.87;;;4.90;99.90;;;;;;5036729;28;20455;-69
2022/03/16 05:33:13;;;;;;;14.80;11.07;;;4.90;99.90;;;;;;5036796;28;20344;-70
2022/03/16 05:35:40;;;;;;;13.40;10.27;;;4.90;99.90;;;;;;5037109;28;20418;-69
2022/03/16 05:38:08;;;;;;;12.77;10.50;;;4.90;99.90;;;;;;5036156;28;20186;-70
2022/03/16 05:40:33;;;;;;;13.83;10.10;;;4.70;99.90;;;;;;5036655;28;20496;-70
2022/03/16 05:42:59;;;;;;;12.90;9.83;;;4.80;99.90;;;;;;5037208;28;20445;-70
2022/03/16 05:45:24;;;;;;;16.30;10.50;;;4.70;99.90;;;;;;5038813;28;20228;-70
2022/03/16 05:47:50;;;;;;;12.57;9.97;;;4.80;99.90;;;;;;5020372;28;20183;-71
2022/03/16 05:50:16;;;;;;;14.90;11.30;;;4.80;99.90;;;;;;5037818;28;20209;-71
2022/03/16 05:52:43;;;;;;;15.07;12.03;;;4.90;99.90;;;;;;5038732;28;20214;-71
2022/03/16 05:55:09;;;;;;;16.03;10.67;;;4.90;99.90;;;;;;5038178;28;20218;-71
2022/03/16 05:57:37;;;;;;;13.57;10.37;;;4.90;99.90;;;;;;5020330;28;20413;-72
2022/03/16 06:00:03;;;;;;;11.57;10.10;;;4.90;99.90;;;;;;5037676;28;20433;-72
2022/03/16 06:02:29;;;;;;;14.40;10.70;;;5.00;99.90;;;;;;5056603;28;20427;-68
2022/03/16 06:04:54;;;;;;;14.23;10.80;;;5.00;99.90;;;;;;5058242;28;20406;-68
2022/03/16 06:07:20;;;;;;;12.40;10.10;;;5.00;99.90;;;;;;5057443;28;20187;-69
2022/03/16 06:09:45;;;;;;;15.90;11.37;;;5.00;99.90;;;;;;5053991;28;20194;-68
2022/03/16 06:12:11;;;;;;;15.30;10.30;;;5.00;99.90;;;;;;5056913;28;20206;-70
2022/03/16 06:14:37;;;;;;;12.27;10.10;;;5.10;99.90;;;;;;5039246;28;20178;-71
2022/03/16 06:17:03;;;;;;;15.70;11.07;;;5.10;99.90;;;;;;5037798;28;20182;-72
2022/03/16 06:19:28;;;;;;;15.30;11.47;;;5.10;99.90;;;;;;5036310;28;20299;-72
2022/03/16 06:21:54;;;;;;;13.70;10.60;;;5.10;99.90;;;;;;5010678;28;20514;-71
2022/03/16 06:24:19;;;;;;;16.87;12.27;;;5.00;99.90;;;;;;5044746;28;20268;-71
2022/03/16 06:26:45;;;;;;;17.77;11.13;;;5.00;99.90;;;;;;5050724;28;20290;-69
2022/03/16 06:29:10;;;;;;;17.27;12.33;;;5.00;99.90;;;;;;5041531;28;20288;-70
2022/03/16 06:31:36;;;;;;;18.03;12.97;;;5.10;99.90;;;;;;5051727;28;20249;-69
2022/03/16 06:34:02;;;;;;;17.50;11.83;;;5.20;99.90;;;;;;5043157;28;20213;-70
2022/03/16 06:36:28;;;;;;;14.47;11.00;;;5.20;99.90;;;;;;5041589;28;20210;-70
2022/03/16 06:38:57;;;;;;;16.97;12.93;;;5.40;99.90;;;;;;5053897;28;20905;-71
2022/03/16 06:41:23;;;;;;;14.47;11.23;;;5.50;99.90;;;;;;5035209;28;20782;-70
2022/03/16 06:43:48;;;;;;;16.27;11.40;;;5.60;99.90;;;;;;5034599;28;20453;-71
2022/03/16 06:46:15;;;;;;;16.07;12.20;;;5.80;99.90;;;;;;5035808;28;20536;-70
2022/03/16 06:48:41;;;;;;;16.43;11.40;;;5.90;99.90;;;;;;5034075;28;20214;-72
2022/03/16 06:51:07;;;;;;;18.13;12.53;;;6.00;99.90;;;;;;5032866;28;20456;-69
2022/03/16 06:53:33;;;;;;;15.87;12.00;;;6.20;99.90;;;;;;5032961;28;20458;-71
2022/03/16 06:55:58;;;;;;;18.10;12.43;;;6.30;99.90;;;;;;5033403;28;20434;-70
2022/03/16 06:58:24;;;;;;;16.90;11.87;;;6.40;99.90;;;;;;5034994;28;20476;-70
2022/03/16 07:00:49;;;;;;;21.60;13.80;;;6.50;99.90;;;;;;5035082;28;20198;-70
2022/03/16 07:03:15;;;;;;;15.70;12.17;;;6.60;99.90;;;;;;5043804;28;20183;-71
2022/03/16 07:05:42;;;;;;;16.37;11.70;;;6.60;99.90;;;;;;5037009;28;20175;-71
2022/03/16 07:08:09;;;;;;;18.30;12.20;;;6.70;99.90;;;;;;5035068;28;20198;-70
2022/03/16 07:10:37;;;;;;;16.47;11.40;;;6.80;99.90;;;;;;5050821;28;20411;-68
2022/03/16 07:13:03;;;;;;;18.67;12.83;;;6.90;99.90;;;;;;5056367;28;20509;-68
2022/03/16 07:15:30;;;;;;;19.47;12.37;;;6.90;99.90;;;;;;5057264;28;20441;-68
2022/03/16 07:17:56;;;;;;;13.43;10.50;;;7.00;99.90;;;;;;5056311;28;20177;-69
2022/03/16 07:20:22;;;;;;;16.87;10.63;;;7.10;99.90;;;;;;5056385;28;20470;-68
2022/03/16 07:23:04;;;;;;;17.13;10.93;;;7.20;99.90;;;;;;5039200;28;20184;-70
2022/03/16 07:25:30;;;;;;;17.23;11.80;;;7.30;99.90;;;;;;5034410;28;20156;-71
2022/03/16 07:27:55;;;;;;;15.00;11.50;;;7.30;99.90;;;;;;5016635;28;20480;-72
2022/03/16 07:30:21;;;;;;;18.43;11.07;;;7.30;99.90;;;;;;5040753;28;20332;-68
2022/03/16 07:32:46;;;;;;;16.43;11.53;;;7.40;99.90;;;;;;5054637;28;20206;-69
2022/03/16 07:35:12;;;;;;;14.53;11.30;;;7.50;99.90;;;;;;5067535;28;20205;-71
2022/03/16 07:37:39;;;;;;;14.10;10.83;;;7.60;99.90;;;;;;5064654;28;20246;-71
2022/03/16 07:40:06;;;;;;;14.33;10.40;;;7.60;99.90;;;;;;5074338;28;20183;-68
2022/03/16 07:42:32;;;;;;;18.23;12.00;;;7.60;99.90;;;;;;5061723;28;20412;-69
2022/03/16 07:44:58;;;;;;;15.10;11.17;;;7.70;99.90;;;;;;5078455;28;20438;-70
2022/03/16 07:47:27;;;;;;;12.90;10.80;;;7.80;99.90;;;;;;5078036;28;20425;-70
2022/03/16 07:49:53;;;;;;;15.67;12.07;;;7.80;99.90;;;;;;5078905;28;20432;-70
2022/03/16 07:52:21;;;;;;;13.20;10.97;;;7.90;99.90;;;;;;5070710;28;20458;-70
2022/03/16 07:54:46;;;;;;;16.90;11.83;;;7.90;99.90;;;;;;5069235;28;21047;-70
2022/03/16 07:57:12;;;;;;;16.20;11.03;;;7.90;99.90;;;;;;5067978;28;20422;-70
2022/03/16 07:59:37;;;;;;;14.27;9.93;;;8.10;99.90;;;;;;5061672;28;20204;-69
2022/03/16 08:02:03;;;;;;;15.67;10.63;;;8.10;99.90;;;;;;5059863;28;20238;-71
2022/03/16 08:04:28;;;;;;;15.43;12.10;;;8.20;99.90;;;;;;5057899;28;20173;-72
2022/03/16 08:06:54;;;;;;;15.53;11.77;;;8.30;99.90;;;;;;5056531;28;20172;-70
2022/03/16 08:09:19;;;;;;;15.83;10.60;;;8.30;99.90;;;;;;5057357;28;20190;-70
2022/03/16 08:11:45;;;;;;;14.67;11.03;;;8.40;99.90;;;;;;5038837;28;20204;-69
2022/03/16 08:14:12;;;;;;;12.43;9.63;;;8.50;99.90;;;;;;5056822;28;20167;-70
2022/03/16 08:16:38;;;;;;;14.37;10.50;;;8.60;99.90;;;;;;5038596;28;20176;-70
2022/03/16 08:19:03;;;;;;;14.67;10.77;;;8.60;99.90;;;;;;5056731;28;20459;-70
2022/03/16 08:21:29;;;;;;;13.47;11.30;;;8.70;99.90;;;;;;5056806;28;20167;-71
2022/03/16 08:23:54;;;;;;;13.70;10.30;;;8.80;99.90;;;;;;5056502;28;20183;-71
2022/03/16 08:26:21;;;;;;;13.60;10.83;;;8.90;99.90;;;;;;5056451;28;20238;-70
2022/03/16 08:28:47;;;;;;;14.77;10.90;;;9.00;99.90;;;;;;5056601;28;20194;-69
2022/03/16 08:31:14;;;;;;;12.70;10.53;;;9.00;99.90;;;;;;5044446;28;20933;-70
2022/03/16 08:33:41;;;;;;;17.50;11.60;;;9.00;99.90;;;;;;5035560;28;20409;-70
2022/03/16 08:36:07;;;;;;;15.10;10.60;;;9.10;99.90;;;;;;5037854;28;20895;-71
2022/03/16 08:38:36;;;;;;;14.67;10.70;;;9.20;99.90;;;;;;5019715;28;20468;-70
2022/03/16 08:41:03;;;;;;;13.27;10.80;;;9.20;99.90;;;;;;5035803;28;20425;-72
2022/03/16 08:43:29;;;;;;;13.37;10.40;;;9.30;99.90;;;;;;5018251;28;20410;-71
2022/03/16 08:45:54;;;;;;;13.00;10.83;;;9.40;99.90;;;;;;5058586;28;20444;-68
2022/03/16 08:48:20;;;;;;;14.33;11.73;;;9.50;99.90;;;;;;5059674;28;20186;-68
2022/03/16 08:50:45;;;;;;;16.87;11.27;;;9.50;99.90;;;;;;5059877;28;20206;-68
2022/03/16 08:53:11;;;;;;;12.90;10.50;;;9.60;99.90;;;;;;5059723;28;20472;-67
2022/03/16 08:55:37;;;;;;;12.80;10.37;;;9.70;99.90;;;;;;5035243;28;20175;-68
2022/03/16 08:58:03;;;;;;;12.30;9.33;;;9.70;99.90;;;;;;5035793;28;20922;-71
2022/03/16 09:00:28;;;;;;;13.20;9.87;;;9.90;99.90;;;;;;5035779;28;20179;-71
2022/03/16 09:02:54;;;;;;;14.33;9.47;;;10.00;99.90;;;;;;5035228;28;20174;-71
2022/03/16 09:05:19;;;;;;;14.70;11.30;;;10.00;99.90;;;;;;5035163;28;20167;-70
2022/03/16 09:07:45;;;;;;;14.73;10.60;;;10.10;99.90;;;;;;5034472;28;20182;-71
2022/03/16 09:10:10;;;;;;;11.97;9.73;;;10.00;99.90;;;;;;5034532;28;20175;-70
2022/03/16 09:12:37;;;;;;;12.63;10.10;;;10.00;99.90;;;;;;5016260;28;20524;-69
2022/03/16 09:15:04;;;;;;;14.40;10.50;;;10.10;99.90;;;;;;5034820;28;20585;-70
2022/03/16 09:17:30;;;;;;;13.40;10.10;;;10.20;99.90;;;;;;5034120;28;20504;-72
2022/03/16 09:19:57;;;;;;;15.80;11.07;;;10.40;99.90;;;;;;5034043;28;20831;-69
2022/03/16 09:22:23;;;;;;;13.23;10.10;;;10.40;99.90;;;;;;5016353;28;20520;-70
2022/03/16 09:24:49;;;;;;;12.43;10.23;;;10.60;99.90;;;;;;5034101;28;20418;-71
2022/03/16 09:27:16;;;;;;;11.50;9.37;;;10.70;99.90;;;;;;5033834;28;20410;-70
2022/03/16 09:29:46;;;;;;;12.13;10.10;;;10.70;99.90;;;;;;5034488;28;20207;-70
2022/03/16 09:32:13;;;;;;;13.70;11.27;;;10.90;99.90;;;;;;5053142;28;20468;-70
2022/03/16 09:34:40;;;;;;;11.83;9.90;;;10.80;99.90;;;;;;5035919;28;20495;-70
2022/03/16 09:37:07;;;;;;;13.27;10.10;;;10.90;99.90;;;;;;5053724;28;20400;-72
2022/03/16 09:39:33;;;;;;;11.40;10.20;;;10.80;99.90;;;;;;5053758;28;20913;-71
2022/03/16 09:42:03;;;;;;;12.97;10.10;;;10.90;99.90;;;;;;5053385;28;20404;-71
2022/03/16 09:44:30;;;;;;;11.67;9.47;;;10.90;99.90;;;;;;5053846;28;20413;-70
2022/03/16 09:46:57;;;;;;;10.30;8.60;;;11.10;99.90;;;;;;5035945;28;20446;-71
2022/03/16 09:49:23;;;;;;;14.57;11.30;;;11.10;99.90;;;;;;5053588;28;20524;-70
2022/03/16 09:51:50;;;;;;;12.27;9.20;;;11.20;99.90;;;;;;5052962;28;20447;-70
2022/03/16 09:54:16;;;;;;;13.90;10.00;;;11.10;99.90;;;;;;5053998;28;20786;-69
2022/03/16 09:56:43;;;;;;;12.93;10.43;;;11.20;99.90;;;;;;5054542;28;20401;-70
2022/03/16 09:59:10;;;;;;;12.97;10.93;;;11.30;99.90;;;;;;5053335;28;21033;-71
2022/03/16 10:01:35;;;;;;;13.87;10.57;;;11.30;99.90;;;;;;5035902;28;20464;-68
2022/03/16 10:04:05;;;;;;;11.33;9.13;;;11.40;99.90;;;;;;5048614;28;20416;-70
2022/03/16 10:06:31;;;;;;;12.50;9.50;;;11.40;99.90;;;;;;5018709;28;20203;-72
2022/03/16 10:14:30;;;;;;;13.70;10.43;;;11.80;99.90;;;;;;5051046;28;20497;-70
2022/03/16 10:19:52;;;;;;;10.33;8.70;;;11.90;99.90;;;;;;5040738;28;20218;-72
2022/03/16 10:22:25;;;;;;;11.63;10.37;;;12.00;99.90;;;;;;5050323;28;20443;-71
2022/03/16 10:24:57;;;;;;;11.40;9.87;;;11.90;99.90;;;;;;5040561;28;20409;-71
2022/03/16 10:27:23;;;;;;;10.80;9.30;;;12.00;99.90;;;;;;5044618;28;20421;-70
2022/03/16 10:29:50;;;;;;;10.17;9.13;;;12.00;99.90;;;;;;5048198;28;20534;-71
2022/03/16 10:32:16;;;;;;;10.30;9.00;;;12.10;99.90;;;;;;5051331;28;20202;-72
2022/03/16 10:34:52;;;;;;;11.63;9.50;;;12.10;99.90;;;;;;5020722;28;20424;-73
2022/03/16 10:37:24;;;;;;;11.33;8.97;;;12.10;99.90;;;;;;5044480;28;20175;-70
2022/03/16 10:39:51;;;;;;;9.03;7.27;;;12.20;99.90;;;;;;5046566;28;20765;-71
2022/03/16 10:48:10;;;;;;;9.03;7.27;;;12.30;99.80;;;;;;5048509;28;20902;-72
2022/03/16 10:50:39;;;;;;;8.47;7.60;;;12.40;99.30;;;;;;5037320;28;20408;-71
2022/03/16 10:53:05;;;;;;;8.20;7.30;;;12.50;99.30;;;;;;5047124;28;20478;-72
2022/03/16 10:55:31;;;;;;;7.80;7.00;;;12.60;99.10;;;;;;5045297;28;20421;-71
2022/03/16 10:57:57;;;;;;;8.07;7.20;;;12.60;98.80;;;;;;5021584;28;20170;-70
2022/03/16 11:00:27;;;;;;;8.13;7.33;;;12.50;98.60;;;;;;5050357;28;20401;-72
2022/03/16 11:02:54;;;;;;;7.37;6.27;;;12.50;98.80;;;;;;5021853;28;20420;-70
2022/03/16 11:05:20;;;;;;;7.60;6.80;;;12.60;98.40;;;;;;5045056;28;20428;-71
2022/03/16 11:07:50;;;;;;;7.73;6.93;;;12.60;98.60;;;;;;5046729;28;20413;-71
2022/03/16 11:10:17;;;;;;;7.00;6.30;;;12.80;98.60;;;;;;5037572;28;20511;-70
2022/03/16 11:15:28;;;;;;;8.63;6.50;;;12.90;98.20;;;;;;5045033;28;20511;-69
2022/03/16 11:17:54;;;;;;;7.93;7.13;;;13.00;97.70;;;;;;5039405;28;20410;-71
2022/03/16 11:20:20;;;;;;;7.63;6.83;;;13.00;97.50;;;;;;5048961;28;20442;-72
2022/03/16 11:25:47;;;;;;;7.30;6.60;;;12.90;97.60;;;;;;5040345;28;20420;-71
2022/03/16 11:28:16;;;;;;;8.83;6.73;;;13.00;97.50;;;;;;5049525;28;20428;-71
2022/03/16 11:30:43;;;;;;;6.80;6.10;;;13.00;97.70;;;;;;5035738;28;20205;-71
2022/03/16 11:33:12;;;;;;;8.37;6.70;;;13.10;97.30;;;;;;5040921;28;20635;-72
2022/03/16 11:35:44;;;;;;;9.67;6.57;;;13.00;97.10;;;;;;5023461;28;20414;-71
2022/03/16 11:38:21;;;;;;;8.63;7.30;;;13.00;97.30;;;;;;5048979;28;20424;-71
2022/03/16 11:40:50;;;;;;;7.23;6.53;;;13.00;97.30;;;;;;5006018;28;20441;-69
2022/03/16 11:43:18;;;;;;;7.27;6.43;;;13.10;97.20;;;;;;5043652;28;20483;-70
2022/03/16 11:45:57;;;;;;;7.10;6.40;;;13.20;97.20;;;;;;5045351;28;20499;-71
2022/03/16 11:48:31;;;;;;;7.03;6.33;;;13.20;97.00;;;;;;5035931;28;20445;-71
2022/03/16 11:51:09;;;;;;;8.80;6.70;;;13.30;97.10;;;;;;5045828;28;20405;-70
2022/03/16 11:53:46;;;;;;;7.30;6.60;;;13.20;96.60;;;;;;5043200;28;20425;-71
2022/03/16 11:56:23;;;;;;;8.67;7.37;;;13.20;96.60;;;;;;5035365;28;20882;-69
2022/03/16 11:58:53;;;;;;;7.17;6.33;;;13.20;96.90;;;;;;5046008;28;20784;-69
2022/03/16 12:01:47;;;;;;;4.87;4.47;;;13.30;97.80;;;;;;5040018;28;20805;-68
2022/03/16 12:04:29;;;;;;;4.80;4.30;;;13.50;98.50;;;;;;5034643;28;20412;-69
2022/03/16 12:07:09;;;;;;;5.47;4.97;;;13.70;98.50;;;;;;5026229;28;20980;-70
2022/03/16 12:09:45;;;;;;;4.83;4.43;;;13.90;97.00;;;;;;5042426;28;20432;-70
2022/03/16 12:15:17;;;;;;;5.90;3.80;;;14.10;96.20;;;;;;5028008;28;20408;-69
2022/03/16 12:17:52;;;;;;;5.13;4.63;;;14.30;96.60;;;;;;5038631;28;20402;-69
2022/03/16 12:20:23;;;;;;;5.97;5.47;;;14.40;96.10;;;;;;5048108;28;20404;-69
2022/03/16 12:22:56;;;;;;;4.50;4.10;;;14.40;95.20;;;;;;5039389;28;20463;-70
2022/03/16 12:25:26;;;;;;;7.30;5.93;;;14.40;95.70;;;;;;5044951;28;20418;-68
2022/03/16 12:30:58;;;;;;;7.77;5.50;;;14.20;94.10;;;;;;5024743;28;20967;-67
2022/03/16 12:33:26;;;;;;;4.50;4.10;;;14.20;95.00;;;;;;5044108;28;20559;-69
2022/03/16 12:35:52;;;;;;;5.73;5.10;;;14.20;94.60;;;;;;5041681;28;20421;-71
2022/03/16 12:38:22;;;;;;;6.10;5.50;;;14.20;94.30;;;;;;5052401;28;20441;-70
2022/03/16 12:43:33;;;;;;;7.43;5.80;;;14.20;93.90;;;;;;5048573;28;20417;-71
2022/03/16 12:46:24;;;;;;;6.47;5.63;;;14.20;93.80;;;;;;5051569;28;20413;-68
2022/03/16 12:48:54;;;;;;;7.87;6.43;;;14.20;93.80;;;;;;5035960;28;20446;-69
2022/03/16 12:51:32;;;;;;;6.73;6.10;;;14.20;93.70;;;;;;5028912;28;20449;-70
2022/03/16 12:53:58;;;;;;;6.70;6.07;;;14.10;94.00;;;;;;5049226;28;20848;-69
2022/03/16 12:56:23;;;;;;;6.53;5.93;;;14.10;94.40;;;;;;5040028;28;20449;-70
2022/03/16 12:58:53;;;;;;;6.00;5.30;;;14.10;94.70;;;;;;5050468;28;20205;-70
2022/03/16 13:01:20;;;;;;;6.63;6.03;;;14.10;94.40;;;;;;5044368;28;20233;-71
2022/03/16 13:03:46;;;;;;;7.13;6.43;;;14.10;94.30;;;;;;5047522;28;20528;-72
2022/03/16 13:06:21;;;;;;;7.50;6.80;;;14.10;94.40;;;;;;5019327;28;20492;-72